sensor_id;sensor_type;location;lat;lon;timestamp;P1;durP1;ratioP1;P2;durP2;ratioP2
60919;SDS011;59039;52.108;19.942;2023-08-21T00:00:00;16.50;;;12.80;;
60919;SDS011;59039;52.108;19.942;2023-08-21T00:02:26;15.10;;;12.20;;
60919;SDS011;59039;52.108;19.942;2023-08-21T00:04:51;14.30;;;12.10;;
60919;SDS011;59039;52.108;19.942;2023-08-21T00:07:16;15.50;;;11.90;;
60919;SDS011;59039;52.108;19.942;2023-08-21T00:09:41;14.80;;;11.70;;
60919;SDS011;59039;52.108;19.942;2023-08-21T00:12:07;15.20;;;12.00;;
60919;SDS011;59039;52.108;19.942;2023-08-21T00:14:32;15.50;;;12.50;;
60919;SDS011;59039;52.108;19.942;2023-08-21T00:16:57;14.10;;;11.90;;
60919;SDS011;59039;52.108;19.942;2023-08-21T00:19:22;13.80;;;11.40;;
60919;SDS011;59039;52.108;19.942;2023-08-21T00:21:48;15.20;;;11.60;;
60919;SDS011;59039;52.108;19.942;2023-08-21T00:24:13;16.40;;;12.60;;
60919;SDS011;59039;52.108;19.942;2023-08-21T00:26:38;16.70;;;12.20;;
60919;SDS011;59039;52.108;19.942;2023-08-21T00:29:03;14.80;;;11.60;;
60919;SDS011;59039;52.108;19.942;2023-08-21T00:31:29;16.80;;;12.10;;
60919;SDS011;59039;52.108;19.942;2023-08-21T00:33:55;16.10;;;12.10;;
60919;SDS011;59039;52.108;19.942;2023-08-21T00:36:20;17.30;;;12.70;;
60919;SDS011;59039;52.108;19.942;2023-08-21T00:38:45;15.50;;;12.50;;
60919;SDS011;59039;52.108;19.942;2023-08-21T00:41:11;16.20;;;12.90;;
60919;SDS011;59039;52.108;19.942;2023-08-21T00:43:36;13.90;;;11.70;;
60919;SDS011;59039;52.108;19.942;2023-08-21T00:46:02;14.80;;;12.30;;
60919;SDS011;59039;52.108;19.942;2023-08-21T00:48:27;16.90;;;12.30;;
60919;SDS011;59039;52.108;19.942;2023-08-21T00:50:52;16.70;;;12.80;;
60919;SDS011;59039;52.108;19.942;2023-08-21T00:53:18;15.90;;;11.50;;
60919;SDS011;59039;52.108;19.942;2023-08-21T00:55:43;17.50;;;12.70;;
60919;SDS011;59039;52.108;19.942;2023-08-21T00:58:09;15.30;;;12.70;;
60919;SDS011;59039;52.108;19.942;2023-08-21T01:00:35;18.30;;;12.90;;
60919;SDS011;59039;52.108;19.942;2023-08-21T01:03:00;16.30;;;13.10;;
60919;SDS011;59039;52.108;19.942;2023-08-21T01:05:25;15.40;;;12.70;;
60919;SDS011;59039;52.108;19.942;2023-08-21T01:10:48;17.80;;;14.20;;
60919;SDS011;59039;52.108;19.942;2023-08-21T01:15:46;16.30;;;12.30;;
60919;SDS011;59039;52.108;19.942;2023-08-21T01:18:15;16.60;;;12.30;;
60919;SDS011;59039;52.108;19.942;2023-08-21T01:20:41;17.80;;;13.20;;
60919;SDS011;59039;52.108;19.942;2023-08-21T01:23:07;18.60;;;12.50;;
60919;SDS011;59039;52.108;19.942;2023-08-21T01:25:32;16.90;;;12.50;;
60919;SDS011;59039;52.108;19.942;2023-08-21T01:27:58;18.20;;;12.00;;
60919;SDS011;59039;52.108;19.942;2023-08-21T01:30:23;15.50;;;12.10;;
60919;SDS011;59039;52.108;19.942;2023-08-21T01:32:59;20.60;;;12.40;;
60919;SDS011;59039;52.108;19.942;2023-08-21T01:35:29;15.80;;;12.00;;
60919;SDS011;59039;52.108;19.942;2023-08-21T01:37:55;16.20;;;12.90;;
60919;SDS011;59039;52.108;19.942;2023-08-21T01:40:24;15.40;;;12.50;;
60919;SDS011;59039;52.108;19.942;2023-08-21T01:42:52;16.70;;;12.60;;
60919;SDS011;59039;52.108;19.942;2023-08-21T01:45:17;17.20;;;11.50;;
60919;SDS011;59039;52.108;19.942;2023-08-21T01:47:43;16.90;;;12.60;;
60919;SDS011;59039;52.108;19.942;2023-08-21T01:50:08;16.10;;;12.70;;
60919;SDS011;59039;52.108;19.942;2023-08-21T01:52:33;16.30;;;12.30;;
60919;SDS011;59039;52.108;19.942;2023-08-21T01:54:59;15.30;;;12.20;;
60919;SDS011;59039;52.108;19.942;2023-08-21T01:57:25;16.20;;;12.80;;
60919;SDS011;59039;52.108;19.942;2023-08-21T01:59:50;17.80;;;12.00;;
60919;SDS011;59039;52.108;19.942;2023-08-21T02:02:15;18.10;;;12.20;;
60919;SDS011;59039;52.108;19.942;2023-08-21T02:04:40;16.60;;;12.70;;
60919;SDS011;59039;52.108;19.942;2023-08-21T02:07:05;17.00;;;12.70;;
60919;SDS011;59039;52.108;19.942;2023-08-21T02:09:31;18.50;;;12.40;;
60919;SDS011;59039;52.108;19.942;2023-08-21T02:11:56;18.40;;;12.90;;
60919;SDS011;59039;52.108;19.942;2023-08-21T02:14:21;16.80;;;12.60;;
60919;SDS011;59039;52.108;19.942;2023-08-21T02:16:46;18.30;;;13.20;;
60919;SDS011;59039;52.108;19.942;2023-08-21T02:19:12;16.60;;;12.80;;
60919;SDS011;59039;52.108;19.942;2023-08-21T02:21:38;15.70;;;13.00;;
60919;SDS011;59039;52.108;19.942;2023-08-21T02:24:03;15.20;;;12.40;;
60919;SDS011;59039;52.108;19.942;2023-08-21T02:26:28;16.00;;;12.70;;
60919;SDS011;59039;52.108;19.942;2023-08-21T02:28:54;18.10;;;13.80;;
60919;SDS011;59039;52.108;19.942;2023-08-21T02:31:19;17.20;;;13.40;;
60919;SDS011;59039;52.108;19.942;2023-08-21T02:33:44;16.90;;;13.00;;
60919;SDS011;59039;52.108;19.942;2023-08-21T02:36:09;15.50;;;13.00;;
60919;SDS011;59039;52.108;19.942;2023-08-21T02:38:35;16.70;;;13.00;;
60919;SDS011;59039;52.108;19.942;2023-08-21T02:41:00;19.30;;;13.90;;
60919;SDS011;59039;52.108;19.942;2023-08-21T02:43:25;17.70;;;13.30;;
60919;SDS011;59039;52.108;19.942;2023-08-21T02:45:50;18.10;;;12.90;;
60919;SDS011;59039;52.108;19.942;2023-08-21T02:48:16;16.70;;;13.10;;
60919;SDS011;59039;52.108;19.942;2023-08-21T02:50:41;16.50;;;12.40;;
60919;SDS011;59039;52.108;19.942;2023-08-21T02:53:06;15.80;;;13.30;;
60919;SDS011;59039;52.108;19.942;2023-08-21T02:55:31;17.60;;;13.90;;
60919;SDS011;59039;52.108;19.942;2023-08-21T02:57:57;17.30;;;12.90;;
60919;SDS011;59039;52.108;19.942;2023-08-21T03:00:22;22.50;;;13.50;;
60919;SDS011;59039;52.108;19.942;2023-08-21T03:02:47;18.10;;;13.90;;
60919;SDS011;59039;52.108;19.942;2023-08-21T03:05:12;20.90;;;13.30;;
60919;SDS011;59039;52.108;19.942;2023-08-21T03:07:37;18.50;;;13.60;;
60919;SDS011;59039;52.108;19.942;2023-08-21T03:10:03;21.20;;;14.40;;
60919;SDS011;59039;52.108;19.942;2023-08-21T03:12:29;19.20;;;14.10;;
60919;SDS011;59039;52.108;19.942;2023-08-21T03:14:54;20.00;;;13.90;;
60919;SDS011;59039;52.108;19.942;2023-08-21T03:17:19;21.40;;;14.60;;
60919;SDS011;59039;52.108;19.942;2023-08-21T03:19:44;19.30;;;13.70;;
60919;SDS011;59039;52.108;19.942;2023-08-21T03:22:10;18.40;;;13.60;;
60919;SDS011;59039;52.108;19.942;2023-08-21T03:24:35;20.50;;;14.10;;
60919;SDS011;59039;52.108;19.942;2023-08-21T03:27:01;20.00;;;14.40;;
60919;SDS011;59039;52.108;19.942;2023-08-21T03:29:27;20.30;;;14.40;;
60919;SDS011;59039;52.108;19.942;2023-08-21T03:31:52;19.40;;;15.10;;
60919;SDS011;59039;52.108;19.942;2023-08-21T03:34:18;21.10;;;14.40;;
60919;SDS011;59039;52.108;19.942;2023-08-21T03:36:44;17.70;;;14.00;;
60919;SDS011;59039;52.108;19.942;2023-08-21T03:39:09;20.00;;;13.70;;
60919;SDS011;59039;52.108;19.942;2023-08-21T03:41:34;19.80;;;15.40;;
60919;SDS011;59039;52.108;19.942;2023-08-21T03:43:59;18.60;;;14.20;;
60919;SDS011;59039;52.108;19.942;2023-08-21T03:46:24;21.20;;;14.60;;
60919;SDS011;59039;52.108;19.942;2023-08-21T03:48:50;19.20;;;14.40;;
60919;SDS011;59039;52.108;19.942;2023-08-21T03:51:16;19.80;;;14.40;;
60919;SDS011;59039;52.108;19.942;2023-08-21T03:53:41;19.90;;;15.20;;
60919;SDS011;59039;52.108;19.942;2023-08-21T03:56:07;23.00;;;15.40;;
60919;SDS011;59039;52.108;19.942;2023-08-21T03:58:32;18.00;;;14.00;;
60919;SDS011;59039;52.108;19.942;2023-08-21T04:00:57;19.80;;;14.70;;
60919;SDS011;59039;52.108;19.942;2023-08-21T04:03:22;18.30;;;13.80;;
60919;SDS011;59039;52.108;19.942;2023-08-21T04:05:47;19.10;;;14.30;;
60919;SDS011;59039;52.108;19.942;2023-08-21T04:08:13;20.60;;;14.60;;
60919;SDS011;59039;52.108;19.942;2023-08-21T04:10:38;21.60;;;15.90;;
60919;SDS011;59039;52.108;19.942;2023-08-21T04:13:04;21.30;;;15.50;;
60919;SDS011;59039;52.108;19.942;2023-08-21T04:15:29;21.50;;;14.90;;
60919;SDS011;59039;52.108;19.942;2023-08-21T04:17:55;19.10;;;14.60;;
60919;SDS011;59039;52.108;19.942;2023-08-21T04:20:20;20.60;;;15.50;;
60919;SDS011;59039;52.108;19.942;2023-08-21T04:22:45;21.30;;;16.00;;
60919;SDS011;59039;52.108;19.942;2023-08-21T04:25:11;24.20;;;15.70;;
60919;SDS011;59039;52.108;19.942;2023-08-21T04:27:36;21.00;;;16.40;;
60919;SDS011;59039;52.108;19.942;2023-08-21T04:30:02;21.80;;;15.20;;
60919;SDS011;59039;52.108;19.942;2023-08-21T04:32:27;21.10;;;15.30;;
60919;SDS011;59039;52.108;19.942;2023-08-21T04:34:52;25.30;;;15.90;;
60919;SDS011;59039;52.108;19.942;2023-08-21T04:37:18;20.10;;;15.80;;
60919;SDS011;59039;52.108;19.942;2023-08-21T04:39:43;20.40;;;15.00;;
60919;SDS011;59039;52.108;19.942;2023-08-21T04:42:09;23.40;;;15.20;;
60919;SDS011;59039;52.108;19.942;2023-08-21T04:44:34;21.50;;;15.50;;
60919;SDS011;59039;52.108;19.942;2023-08-21T04:47:14;19.60;;;15.30;;
60919;SDS011;59039;52.108;19.942;2023-08-21T04:49:44;19.70;;;15.40;;
60919;SDS011;59039;52.108;19.942;2023-08-21T04:52:09;23.20;;;16.00;;
60919;SDS011;59039;52.108;19.942;2023-08-21T04:54:35;23.40;;;14.90;;
60919;SDS011;59039;52.108;19.942;2023-08-21T04:57:00;21.60;;;16.60;;
60919;SDS011;59039;52.108;19.942;2023-08-21T04:59:25;21.40;;;15.70;;
60919;SDS011;59039;52.108;19.942;2023-08-21T05:01:52;21.80;;;16.50;;
60919;SDS011;59039;52.108;19.942;2023-08-21T05:04:17;22.40;;;16.40;;
60919;SDS011;59039;52.108;19.942;2023-08-21T05:06:42;20.60;;;15.80;;
60919;SDS011;59039;52.108;19.942;2023-08-21T05:09:07;23.60;;;16.90;;
60919;SDS011;59039;52.108;19.942;2023-08-21T05:11:32;20.10;;;15.30;;
60919;SDS011;59039;52.108;19.942;2023-08-21T05:13:58;23.60;;;17.30;;
60919;SDS011;59039;52.108;19.942;2023-08-21T05:16:23;23.00;;;16.60;;
60919;SDS011;59039;52.108;19.942;2023-08-21T05:18:48;21.70;;;16.80;;
60919;SDS011;59039;52.108;19.942;2023-08-21T05:21:13;25.30;;;17.90;;
60919;SDS011;59039;52.108;19.942;2023-08-21T05:23:38;25.80;;;17.40;;
60919;SDS011;59039;52.108;19.942;2023-08-21T05:26:04;26.10;;;17.80;;
60919;SDS011;59039;52.108;19.942;2023-08-21T05:28:29;34.70;;;18.70;;
60919;SDS011;59039;52.108;19.942;2023-08-21T05:30:54;26.40;;;18.20;;
60919;SDS011;59039;52.108;19.942;2023-08-21T05:33:19;26.50;;;19.40;;
60919;SDS011;59039;52.108;19.942;2023-08-21T05:35:45;26.80;;;19.00;;
60919;SDS011;59039;52.108;19.942;2023-08-21T05:38:10;28.00;;;19.20;;
60919;SDS011;59039;52.108;19.942;2023-08-21T05:40:35;28.00;;;19.10;;
60919;SDS011;59039;52.108;19.942;2023-08-21T05:43:00;26.40;;;19.30;;
60919;SDS011;59039;52.108;19.942;2023-08-21T05:45:26;24.10;;;19.00;;
60919;SDS011;59039;52.108;19.942;2023-08-21T05:47:51;28.50;;;19.50;;
60919;SDS011;59039;52.108;19.942;2023-08-21T05:50:16;25.10;;;19.50;;
60919;SDS011;59039;52.108;19.942;2023-08-21T05:52:41;24.50;;;20.50;;
60919;SDS011;59039;52.108;19.942;2023-08-21T05:55:06;24.30;;;19.80;;
60919;SDS011;59039;52.108;19.942;2023-08-21T05:57:32;24.50;;;19.10;;
60919;SDS011;59039;52.108;19.942;2023-08-21T05:59:57;23.40;;;18.80;;
60919;SDS011;59039;52.108;19.942;2023-08-21T06:02:22;24.80;;;19.60;;
60919;SDS011;59039;52.108;19.942;2023-08-21T06:04:47;23.80;;;19.40;;
60919;SDS011;59039;52.108;19.942;2023-08-21T06:07:13;23.20;;;17.90;;
60919;SDS011;59039;52.108;19.942;2023-08-21T06:09:38;22.60;;;18.30;;
60919;SDS011;59039;52.108;19.942;2023-08-21T06:12:03;22.30;;;17.60;;
60919;SDS011;59039;52.108;19.942;2023-08-21T06:14:29;24.40;;;19.20;;
60919;SDS011;59039;52.108;19.942;2023-08-21T06:17:02;23.00;;;18.00;;
60919;SDS011;59039;52.108;19.942;2023-08-21T06:19:28;22.60;;;18.20;;
60919;SDS011;59039;52.108;19.942;2023-08-21T06:21:57;26.50;;;18.50;;
60919;SDS011;59039;52.108;19.942;2023-08-21T06:24:22;22.10;;;17.20;;
60919;SDS011;59039;52.108;19.942;2023-08-21T06:26:48;23.50;;;17.90;;
60919;SDS011;59039;52.108;19.942;2023-08-21T06:29:13;25.80;;;18.10;;
60919;SDS011;59039;52.108;19.942;2023-08-21T06:31:39;24.00;;;17.00;;
60919;SDS011;59039;52.108;19.942;2023-08-21T06:34:04;23.30;;;17.10;;
60919;SDS011;59039;52.108;19.942;2023-08-21T06:36:29;24.60;;;16.90;;
60919;SDS011;59039;52.108;19.942;2023-08-21T06:38:55;24.50;;;17.90;;
60919;SDS011;59039;52.108;19.942;2023-08-21T06:41:21;24.60;;;18.60;;
60919;SDS011;59039;52.108;19.942;2023-08-21T06:43:46;23.00;;;17.60;;
60919;SDS011;59039;52.108;19.942;2023-08-21T06:46:11;25.10;;;18.00;;
60919;SDS011;59039;52.108;19.942;2023-08-21T06:48:37;22.40;;;17.10;;
60919;SDS011;59039;52.108;19.942;2023-08-21T06:51:04;24.60;;;16.80;;
60919;SDS011;59039;52.108;19.942;2023-08-21T06:53:29;21.90;;;17.00;;
60919;SDS011;59039;52.108;19.942;2023-08-21T06:55:54;26.60;;;17.90;;
60919;SDS011;59039;52.108;19.942;2023-08-21T06:58:20;24.40;;;18.60;;
60919;SDS011;59039;52.108;19.942;2023-08-21T07:00:45;25.00;;;17.80;;
60919;SDS011;59039;52.108;19.942;2023-08-21T07:03:11;28.90;;;19.80;;
60919;SDS011;59039;52.108;19.942;2023-08-21T07:05:36;24.50;;;18.40;;
60919;SDS011;59039;52.108;19.942;2023-08-21T07:08:02;24.80;;;18.40;;
60919;SDS011;59039;52.108;19.942;2023-08-21T07:10:27;22.30;;;17.20;;
60919;SDS011;59039;52.108;19.942;2023-08-21T07:12:52;22.60;;;17.00;;
60919;SDS011;59039;52.108;19.942;2023-08-21T07:15:18;22.70;;;17.90;;
60919;SDS011;59039;52.108;19.942;2023-08-21T07:17:43;23.20;;;17.00;;
60919;SDS011;59039;52.108;19.942;2023-08-21T07:20:08;23.10;;;18.20;;
60919;SDS011;59039;52.108;19.942;2023-08-21T07:22:34;25.60;;;18.50;;
60919;SDS011;59039;52.108;19.942;2023-08-21T07:24:59;28.20;;;18.90;;
60919;SDS011;59039;52.108;19.942;2023-08-21T07:27:24;25.10;;;18.40;;
60919;SDS011;59039;52.108;19.942;2023-08-21T07:29:49;28.10;;;19.40;;
60919;SDS011;59039;52.108;19.942;2023-08-21T07:32:15;26.00;;;18.50;;
60919;SDS011;59039;52.108;19.942;2023-08-21T07:34:40;23.20;;;18.00;;
60919;SDS011;59039;52.108;19.942;2023-08-21T07:37:07;23.20;;;18.20;;
60919;SDS011;59039;52.108;19.942;2023-08-21T07:39:32;24.70;;;18.50;;
60919;SDS011;59039;52.108;19.942;2023-08-21T07:41:58;23.50;;;17.40;;
60919;SDS011;59039;52.108;19.942;2023-08-21T07:44:23;24.20;;;18.30;;
60919;SDS011;59039;52.108;19.942;2023-08-21T07:46:48;20.90;;;17.50;;
60919;SDS011;59039;52.108;19.942;2023-08-21T07:49:13;25.80;;;18.00;;
60919;SDS011;59039;52.108;19.942;2023-08-21T07:51:38;23.40;;;18.40;;
60919;SDS011;59039;52.108;19.942;2023-08-21T07:54:04;23.80;;;18.70;;
60919;SDS011;59039;52.108;19.942;2023-08-21T07:56:29;27.20;;;20.20;;
60919;SDS011;59039;52.108;19.942;2023-08-21T07:58:54;26.10;;;20.40;;
60919;SDS011;59039;52.108;19.942;2023-08-21T08:01:19;29.60;;;19.10;;
60919;SDS011;59039;52.108;19.942;2023-08-21T08:03:44;25.30;;;19.10;;
60919;SDS011;59039;52.108;19.942;2023-08-21T08:06:10;24.70;;;19.00;;
60919;SDS011;59039;52.108;19.942;2023-08-21T08:08:35;25.20;;;18.80;;
60919;SDS011;59039;52.108;19.942;2023-08-21T08:11:03;28.90;;;19.40;;
60919;SDS011;59039;52.108;19.942;2023-08-21T08:13:29;22.50;;;18.10;;
60919;SDS011;59039;52.108;19.942;2023-08-21T08:15:54;26.10;;;20.50;;
60919;SDS011;59039;52.108;19.942;2023-08-21T08:18:19;29.00;;;21.90;;
60919;SDS011;59039;52.108;19.942;2023-08-21T08:20:45;26.80;;;20.70;;
60919;SDS011;59039;52.108;19.942;2023-08-21T08:23:10;29.60;;;21.20;;
60919;SDS011;59039;52.108;19.942;2023-08-21T08:25:35;24.00;;;18.70;;
60919;SDS011;59039;52.108;19.942;2023-08-21T08:28:00;24.30;;;19.30;;
60919;SDS011;59039;52.108;19.942;2023-08-21T08:30:26;27.30;;;20.00;;
60919;SDS011;59039;52.108;19.942;2023-08-21T08:32:51;23.60;;;19.10;;
60919;SDS011;59039;52.108;19.942;2023-08-21T08:35:16;23.00;;;18.60;;
60919;SDS011;59039;52.108;19.942;2023-08-21T08:37:42;24.10;;;18.00;;
60919;SDS011;59039;52.108;19.942;2023-08-21T08:40:07;22.70;;;18.50;;
60919;SDS011;59039;52.108;19.942;2023-08-21T08:42:34;20.90;;;17.40;;
60919;SDS011;59039;52.108;19.942;2023-08-21T08:44:59;19.50;;;15.20;;
60919;SDS011;59039;52.108;19.942;2023-08-21T08:47:27;19.00;;;15.60;;
60919;SDS011;59039;52.108;19.942;2023-08-21T08:49:52;23.70;;;15.30;;
60919;SDS011;59039;52.108;19.942;2023-08-21T08:52:20;20.80;;;16.20;;
60919;SDS011;59039;52.108;19.942;2023-08-21T08:54:46;20.70;;;15.70;;
60919;SDS011;59039;52.108;19.942;2023-08-21T08:57:11;20.80;;;16.00;;
60919;SDS011;59039;52.108;19.942;2023-08-21T08:59:36;21.10;;;16.60;;
60919;SDS011;59039;52.108;19.942;2023-08-21T09:02:02;20.60;;;15.30;;
60919;SDS011;59039;52.108;19.942;2023-08-21T09:04:27;18.60;;;15.30;;
60919;SDS011;59039;52.108;19.942;2023-08-21T09:07:05;17.80;;;14.10;;
60919;SDS011;59039;52.108;19.942;2023-08-21T09:09:37;15.60;;;13.30;;
60919;SDS011;59039;52.108;19.942;2023-08-21T09:12:12;15.30;;;12.70;;
60919;SDS011;59039;52.108;19.942;2023-08-21T09:14:39;16.10;;;13.30;;
60919;SDS011;59039;52.108;19.942;2023-08-21T09:17:05;14.40;;;12.50;;
60919;SDS011;59039;52.108;19.942;2023-08-21T09:19:30;15.30;;;12.00;;
60919;SDS011;59039;52.108;19.942;2023-08-21T09:21:55;14.30;;;11.50;;
60919;SDS011;59039;52.108;19.942;2023-08-21T09:24:20;12.40;;;10.50;;
60919;SDS011;59039;52.108;19.942;2023-08-21T09:26:46;11.90;;;9.50;;
60919;SDS011;59039;52.108;19.942;2023-08-21T09:29:11;11.60;;;8.70;;
60919;SDS011;59039;52.108;19.942;2023-08-21T09:31:37;9.80;;;8.50;;
60919;SDS011;59039;52.108;19.942;2023-08-21T09:34:03;10.60;;;8.50;;
60919;SDS011;59039;52.108;19.942;2023-08-21T09:36:29;9.30;;;7.70;;
60919;SDS011;59039;52.108;19.942;2023-08-21T09:38:54;10.30;;;8.70;;
60919;SDS011;59039;52.108;19.942;2023-08-21T09:41:20;10.50;;;8.40;;
60919;SDS011;59039;52.108;19.942;2023-08-21T09:43:45;11.30;;;8.10;;
60919;SDS011;59039;52.108;19.942;2023-08-21T09:46:13;10.20;;;8.10;;
60919;SDS011;59039;52.108;19.942;2023-08-21T09:48:39;9.50;;;6.70;;
60919;SDS011;59039;52.108;19.942;2023-08-21T09:51:05;8.10;;;5.60;;
60919;SDS011;59039;52.108;19.942;2023-08-21T09:53:31;9.60;;;6.10;;
60919;SDS011;59039;52.108;19.942;2023-08-21T09:55:57;9.20;;;5.60;;
60919;SDS011;59039;52.108;19.942;2023-08-21T09:58:25;6.50;;;5.20;;
60919;SDS011;59039;52.108;19.942;2023-08-21T10:00:50;8.00;;;5.70;;
60919;SDS011;59039;52.108;19.942;2023-08-21T10:03:18;6.80;;;4.90;;
60919;SDS011;59039;52.108;19.942;2023-08-21T10:05:45;6.70;;;4.60;;
60919;SDS011;59039;52.108;19.942;2023-08-21T10:08:12;6.10;;;4.30;;
60919;SDS011;59039;52.108;19.942;2023-08-21T10:10:40;6.60;;;4.60;;
60919;SDS011;59039;52.108;19.942;2023-08-21T10:13:06;5.70;;;4.30;;
60919;SDS011;59039;52.108;19.942;2023-08-21T10:15:33;4.60;;;3.50;;
60919;SDS011;59039;52.108;19.942;2023-08-21T10:18:20;5.10;;;3.90;;
60919;SDS011;59039;52.108;19.942;2023-08-21T10:20:47;5.20;;;3.80;;
60919;SDS011;59039;52.108;19.942;2023-08-21T10:23:28;4.90;;;3.50;;
60919;SDS011;59039;52.108;19.942;2023-08-21T10:25:56;5.80;;;3.90;;
60919;SDS011;59039;52.108;19.942;2023-08-21T10:28:22;7.70;;;3.50;;
60919;SDS011;59039;52.108;19.942;2023-08-21T10:30:47;4.80;;;3.50;;
60919;SDS011;59039;52.108;19.942;2023-08-21T10:33:12;7.10;;;3.30;;
60919;SDS011;59039;52.108;19.942;2023-08-21T10:35:37;3.90;;;2.90;;
60919;SDS011;59039;52.108;19.942;2023-08-21T10:40:42;6.10;;;3.30;;
60919;SDS011;59039;52.108;19.942;2023-08-21T10:43:36;4.90;;;3.10;;
60919;SDS011;59039;52.108;19.942;2023-08-21T10:46:02;5.40;;;3.20;;
60919;SDS011;59039;52.108;19.942;2023-08-21T10:48:27;4.50;;;3.10;;
60919;SDS011;59039;52.108;19.942;2023-08-21T10:50:52;7.30;;;3.70;;
60919;SDS011;59039;52.108;19.942;2023-08-21T10:53:19;6.60;;;3.60;;
60919;SDS011;59039;52.108;19.942;2023-08-21T10:55:48;5.30;;;3.30;;
60919;SDS011;59039;52.108;19.942;2023-08-21T10:58:17;5.10;;;3.70;;
60919;SDS011;59039;52.108;19.942;2023-08-21T11:00:43;5.10;;;3.30;;
60919;SDS011;59039;52.108;19.942;2023-08-21T11:03:08;4.50;;;3.20;;
60919;SDS011;59039;52.108;19.942;2023-08-21T11:05:33;4.60;;;3.10;;
60919;SDS011;59039;52.108;19.942;2023-08-21T11:07:58;6.70;;;3.40;;
60919;SDS011;59039;52.108;19.942;2023-08-21T11:10:24;5.10;;;3.90;;
60919;SDS011;59039;52.108;19.942;2023-08-21T11:12:56;4.30;;;3.30;;
60919;SDS011;59039;52.108;19.942;2023-08-21T11:15:22;4.30;;;3.00;;
60919;SDS011;59039;52.108;19.942;2023-08-21T11:17:53;4.90;;;3.00;;
60919;SDS011;59039;52.108;19.942;2023-08-21T11:20:19;4.30;;;3.00;;
60919;SDS011;59039;52.108;19.942;2023-08-21T11:22:44;4.50;;;3.10;;
60919;SDS011;59039;52.108;19.942;2023-08-21T11:25:09;3.90;;;3.00;;
60919;SDS011;59039;52.108;19.942;2023-08-21T11:27:35;4.70;;;3.10;;
60919;SDS011;59039;52.108;19.942;2023-08-21T11:30:00;5.00;;;3.20;;
60919;SDS011;59039;52.108;19.942;2023-08-21T11:32:26;5.90;;;3.60;;
60919;SDS011;59039;52.108;19.942;2023-08-21T11:34:52;6.00;;;3.30;;
60919;SDS011;59039;52.108;19.942;2023-08-21T11:37:19;5.00;;;3.40;;
60919;SDS011;59039;52.108;19.942;2023-08-21T11:39:49;8.60;;;3.70;;
60919;SDS011;59039;52.108;19.942;2023-08-21T11:42:16;6.50;;;3.60;;
60919;SDS011;59039;52.108;19.942;2023-08-21T11:44:45;6.30;;;3.70;;
60919;SDS011;59039;52.108;19.942;2023-08-21T11:47:18;5.80;;;3.20;;
60919;SDS011;59039;52.108;19.942;2023-08-21T11:49:45;5.60;;;3.50;;
60919;SDS011;59039;52.108;19.942;2023-08-21T11:52:12;7.10;;;3.80;;
60919;SDS011;59039;52.108;19.942;2023-08-21T11:54:39;5.70;;;4.10;;
60919;SDS011;59039;52.108;19.942;2023-08-21T11:57:06;7.50;;;3.90;;
60919;SDS011;59039;52.108;19.942;2023-08-21T11:59:33;5.60;;;3.80;;
60919;SDS011;59039;52.108;19.942;2023-08-21T12:01:58;5.20;;;3.60;;
60919;SDS011;59039;52.108;19.942;2023-08-21T12:04:24;6.50;;;3.90;;
60919;SDS011;59039;52.108;19.942;2023-08-21T12:06:49;7.30;;;3.90;;
60919;SDS011;59039;52.108;19.942;2023-08-21T12:09:14;6.20;;;3.70;;
60919;SDS011;59039;52.108;19.942;2023-08-21T12:11:40;5.60;;;3.70;;
60919;SDS011;59039;52.108;19.942;2023-08-21T12:14:05;5.00;;;3.70;;
60919;SDS011;59039;52.108;19.942;2023-08-21T12:16:30;6.10;;;3.70;;
60919;SDS011;59039;52.108;19.942;2023-08-21T12:18:55;5.70;;;3.70;;
60919;SDS011;59039;52.108;19.942;2023-08-21T12:21:21;4.60;;;3.60;;
60919;SDS011;59039;52.108;19.942;2023-08-21T12:23:46;5.40;;;3.80;;
60919;SDS011;59039;52.108;19.942;2023-08-21T12:26:11;5.40;;;3.70;;
60919;SDS011;59039;52.108;19.942;2023-08-21T12:28:36;6.90;;;4.40;;
60919;SDS011;59039;52.108;19.942;2023-08-21T12:31:02;5.80;;;3.90;;
60919;SDS011;59039;52.108;19.942;2023-08-21T12:33:27;9.80;;;4.60;;
60919;SDS011;59039;52.108;19.942;2023-08-21T12:35:52;6.20;;;3.90;;
60919;SDS011;59039;52.108;19.942;2023-08-21T12:38:17;7.10;;;3.90;;
60919;SDS011;59039;52.108;19.942;2023-08-21T12:40:43;7.40;;;4.00;;
60919;SDS011;59039;52.108;19.942;2023-08-21T12:43:08;5.80;;;3.70;;
60919;SDS011;59039;52.108;19.942;2023-08-21T12:45:35;5.70;;;4.50;;
60919;SDS011;59039;52.108;19.942;2023-08-21T12:48:01;6.10;;;4.50;;
60919;SDS011;59039;52.108;19.942;2023-08-21T12:50:26;6.70;;;4.80;;
60919;SDS011;59039;52.108;19.942;2023-08-21T12:52:51;7.20;;;4.10;;
60919;SDS011;59039;52.108;19.942;2023-08-21T12:55:16;7.30;;;4.80;;
60919;SDS011;59039;52.108;19.942;2023-08-21T12:57:41;5.10;;;3.90;;
60919;SDS011;59039;52.108;19.942;2023-08-21T13:00:07;6.60;;;3.90;;
60919;SDS011;59039;52.108;19.942;2023-08-21T13:02:32;6.20;;;4.20;;
60919;SDS011;59039;52.108;19.942;2023-08-21T13:04:57;6.00;;;3.80;;
60919;SDS011;59039;52.108;19.942;2023-08-21T13:07:23;7.20;;;4.20;;
60919;SDS011;59039;52.108;19.942;2023-08-21T13:09:48;6.60;;;4.20;;
60919;SDS011;59039;52.108;19.942;2023-08-21T13:12:13;6.70;;;3.50;;
60919;SDS011;59039;52.108;19.942;2023-08-21T13:14:38;8.90;;;4.20;;
60919;SDS011;59039;52.108;19.942;2023-08-21T13:17:03;6.10;;;3.60;;
60919;SDS011;59039;52.108;19.942;2023-08-21T13:19:29;9.00;;;4.00;;
60919;SDS011;59039;52.108;19.942;2023-08-21T13:21:54;4.90;;;3.90;;
60919;SDS011;59039;52.108;19.942;2023-08-21T13:24:19;6.20;;;4.40;;
60919;SDS011;59039;52.108;19.942;2023-08-21T13:26:44;8.00;;;4.00;;
60919;SDS011;59039;52.108;19.942;2023-08-21T13:29:09;19.00;;;4.70;;
60919;SDS011;59039;52.108;19.942;2023-08-21T13:31:35;10.40;;;4.30;;
60919;SDS011;59039;52.108;19.942;2023-08-21T13:34:00;20.80;;;4.90;;
60919;SDS011;59039;52.108;19.942;2023-08-21T13:36:25;5.80;;;3.70;;
60919;SDS011;59039;52.108;19.942;2023-08-21T13:38:50;7.30;;;4.20;;
60919;SDS011;59039;52.108;19.942;2023-08-21T13:41:16;7.30;;;4.00;;
60919;SDS011;59039;52.108;19.942;2023-08-21T13:43:41;13.00;;;4.30;;
60919;SDS011;59039;52.108;19.942;2023-08-21T13:46:06;8.70;;;3.70;;
60919;SDS011;59039;52.108;19.942;2023-08-21T13:48:32;6.10;;;3.70;;
60919;SDS011;59039;52.108;19.942;2023-08-21T13:50:57;5.80;;;3.80;;
60919;SDS011;59039;52.108;19.942;2023-08-21T13:53:23;5.80;;;3.50;;
60919;SDS011;59039;52.108;19.942;2023-08-21T13:55:49;7.20;;;4.00;;
60919;SDS011;59039;52.108;19.942;2023-08-21T13:58:15;7.00;;;3.90;;
60919;SDS011;59039;52.108;19.942;2023-08-21T14:00:40;6.60;;;4.30;;
60919;SDS011;59039;52.108;19.942;2023-08-21T14:03:05;5.50;;;4.10;;
60919;SDS011;59039;52.108;19.942;2023-08-21T14:05:30;8.40;;;4.00;;
60919;SDS011;59039;52.108;19.942;2023-08-21T14:07:56;5.80;;;3.50;;
60919;SDS011;59039;52.108;19.942;2023-08-21T14:10:21;5.20;;;3.90;;
60919;SDS011;59039;52.108;19.942;2023-08-21T14:12:46;7.40;;;4.10;;
60919;SDS011;59039;52.108;19.942;2023-08-21T14:15:11;6.40;;;4.00;;